sensor_id;sensor_type;location;lat;lon;timestamp;pressure;altitude;pressure_sealevel;temperature;humidity
75425;BME280;64007;50.632;13.700;2023-11-21T00:00:19;97289.38;;;6.04;100.00
75425;BME280;64007;50.632;13.700;2023-11-21T00:03:05;97281.69;;;6.01;100.00
75425;BME280;64007;50.632;13.700;2023-11-21T00:05:32;97295.81;;;6.00;100.00
75425;BME280;64007;50.632;13.700;2023-11-21T00:07:58;97284.53;;;5.98;100.00
75425;BME280;64007;50.632;13.700;2023-11-21T00:10:23;97284.53;;;5.98;100.00
75425;BME280;64007;50.632;13.700;2023-11-21T00:12:49;97285.00;;;5.92;100.00
75425;BME280;64007;50.632;13.700;2023-11-21T00:15:15;97286.38;;;5.85;100.00
75425;BME280;64007;50.632;13.700;2023-11-21T00:17:41;97278.00;;;6.04;100.00
75425;BME280;64007;50.632;13.700;2023-11-21T00:20:08;97278.53;;;5.96;100.00
75425;BME280;64007;50.632;13.700;2023-11-21T00:22:35;97281.78;;;6.00;100.00
75425;BME280;64007;50.632;13.700;2023-11-21T00:25:01;97277.81;;;5.94;100.00
75425;BME280;64007;50.632;13.700;2023-11-21T00:27:29;97278.22;;;5.88;100.00
75425;BME280;64007;50.632;13.700;2023-11-21T00:29:55;97285.53;;;5.84;100.00
75425;BME280;64007;50.632;13.700;2023-11-21T00:32:21;97287.34;;;5.84;100.00
75425;BME280;64007;50.632;13.700;2023-11-21T00:34:46;97289.47;;;5.79;100.00
75425;BME280;64007;50.632;13.700;2023-11-21T00:37:12;97285.41;;;5.86;100.00
75425;BME280;64007;50.632;13.700;2023-11-21T00:39:38;97288.75;;;5.77;100.00
75425;BME280;64007;50.632;13.700;2023-11-21T00:42:04;97292.56;;;5.73;100.00
75425;BME280;64007;50.632;13.700;2023-11-21T00:44:30;97294.47;;;5.71;100.00
75425;BME280;64007;50.632;13.700;2023-11-21T00:46:56;97287.00;;;5.64;100.00
75425;BME280;64007;50.632;13.700;2023-11-21T00:49:21;97286.16;;;5.64;100.00
75425;BME280;64007;50.632;13.700;2023-11-21T00:51:47;97290.47;;;5.65;100.00
75425;BME280;64007;50.632;13.700;2023-11-21T00:54:13;97280.78;;;5.65;100.00
75425;BME280;64007;50.632;13.700;2023-11-21T00:56:39;97295.13;;;5.61;100.00
75425;BME280;64007;50.632;13.700;2023-11-21T00:59:05;97293.22;;;5.63;100.00
75425;BME280;64007;50.632;13.700;2023-11-21T01:01:31;97299.25;;;5.65;100.00
75425;BME280;64007;50.632;13.700;2023-11-21T01:03:56;97298.50;;;5.63;100.00
75425;BME280;64007;50.632;13.700;2023-11-21T01:06:22;97305.34;;;5.66;100.00
75425;BME280;64007;50.632;13.700;2023-11-21T01:08:48;97298.41;;;5.65;100.00
75425;BME280;64007;50.632;13.700;2023-11-21T01:11:14;97299.00;;;5.69;100.00
75425;BME280;64007;50.632;13.700;2023-11-21T01:13:41;97301.94;;;5.77;100.00
75425;BME280;64007;50.632;13.700;2023-11-21T01:16:08;97298.56;;;5.75;100.00
75425;BME280;64007;50.632;13.700;2023-11-21T01:18:35;97312.47;;;5.77;100.00
75425;BME280;64007;50.632;13.700;2023-11-21T01:21:00;97311.53;;;5.78;100.00
75425;BME280;64007;50.632;13.700;2023-11-21T01:23:26;97312.03;;;5.83;100.00
75425;BME280;64007;50.632;13.700;2023-11-21T01:25:52;97313.50;;;5.87;100.00
75425;BME280;64007;50.632;13.700;2023-11-21T01:28:18;97312.44;;;5.89;100.00
75425;BME280;64007;50.632;13.700;2023-11-21T01:30:45;97302.75;;;5.90;100.00
75425;BME280;64007;50.632;13.700;2023-11-21T01:33:11;97309.97;;;5.99;100.00
75425;BME280;64007;50.632;13.700;2023-11-21T01:35:37;97316.22;;;5.98;100.00
75425;BME280;64007;50.632;13.700;2023-11-21T01:38:03;97313.88;;;6.06;100.00
75425;BME280;64007;50.632;13.700;2023-11-21T01:40:30;97312.56;;;6.12;100.00
75425;BME280;64007;50.632;13.700;2023-11-21T01:42:56;97308.84;;;6.14;100.00
75425;BME280;64007;50.632;13.700;2023-11-21T01:45:23;97309.81;;;6.13;100.00
75425;BME280;64007;50.632;13.700;2023-11-21T01:47:50;97310.78;;;6.12;100.00
75425;BME280;64007;50.632;13.700;2023-11-21T01:50:16;97315.25;;;6.23;100.00
75425;BME280;64007;50.632;13.700;2023-11-21T01:52:46;97317.03;;;6.22;100.00
75425;BME280;64007;50.632;13.700;2023-11-21T01:55:15;97324.00;;;6.23;100.00
75425;BME280;64007;50.632;13.700;2023-11-21T01:57:44;97312.72;;;6.21;100.00
75425;BME280;64007;50.632;13.700;2023-11-21T02:00:12;97317.78;;;6.24;100.00
75425;BME280;64007;50.632;13.700;2023-11-21T02:02:48;97315.84;;;6.26;100.00
75425;BME280;64007;50.632;13.700;2023-11-21T02:05:15;97312.50;;;6.24;100.00
75425;BME280;64007;50.632;13.700;2023-11-21T02:07:42;97315.63;;;6.29;100.00
75425;BME280;64007;50.632;13.700;2023-11-21T02:10:09;97312.03;;;6.31;100.00
75425;BME280;64007;50.632;13.700;2023-11-21T02:12:35;97312.03;;;6.31;100.00
75425;BME280;64007;50.632;13.700;2023-11-21T02:15:02;97308.44;;;6.32;100.00
75425;BME280;64007;50.632;13.700;2023-11-21T02:17:30;97311.06;;;6.32;100.00
75425;BME280;64007;50.632;13.700;2023-11-21T02:19:58;97319.38;;;6.38;100.00
75425;BME280;64007;50.632;13.700;2023-11-21T02:22:27;97312.97;;;6.29;100.00
75425;BME280;64007;50.632;13.700;2023-11-21T02:24:56;97313.94;;;6.28;100.00
75425;BME280;64007;50.632;13.700;2023-11-21T02:27:23;97314.41;;;6.22;100.00
75425;BME280;64007;50.632;13.700;2023-11-21T02:29:50;97311.03;;;6.20;100.00
75425;BME280;64007;50.632;13.700;2023-11-21T02:32:16;97316.78;;;6.14;100.00
75425;BME280;64007;50.632;13.700;2023-11-21T02:34:45;97323.97;;;6.12;100.00
75425;BME280;64007;50.632;13.700;2023-11-21T02:37:10;97314.28;;;6.00;100.00
75425;BME280;64007;50.632;13.700;2023-11-21T02:39:36;97319.78;;;5.97;100.00
75425;BME280;64007;50.632;13.700;2023-11-21T02:42:01;97325.31;;;5.94;100.00
75425;BME280;64007;50.632;13.700;2023-11-21T02:44:27;97321.94;;;5.92;100.00
75425;BME280;64007;50.632;13.700;2023-11-21T02:46:53;97327.00;;;5.95;100.00
75425;BME280;64007;50.632;13.700;2023-11-21T02:49:19;97322.84;;;6.04;100.00
75425;BME280;64007;50.632;13.700;2023-11-21T02:51:44;97325.06;;;5.97;100.00
75425;BME280;64007;50.632;13.700;2023-11-21T02:54:11;97323.28;;;5.97;100.00
75425;BME280;64007;50.632;13.700;2023-11-21T02:56:36;97322.88;;;5.91;100.00
75425;BME280;64007;50.632;13.700;2023-11-21T02:59:03;97328.28;;;5.89;100.00
75425;BME280;64007;50.632;13.700;2023-11-21T03:01:28;97325.53;;;5.91;100.00
75425;BME280;64007;50.632;13.700;2023-11-21T03:03:54;97327.22;;;5.92;100.00
75425;BME280;64007;50.632;13.700;2023-11-21T03:06:21;97326.16;;;5.94;100.00
75425;BME280;64007;50.632;13.700;2023-11-21T03:08:47;97317.28;;;5.95;100.00
75425;BME280;64007;50.632;13.700;2023-11-21T03:11:13;97323.16;;;5.99;100.00
75425;BME280;64007;50.632;13.700;2023-11-21T03:13:40;97328.25;;;6.02;100.00
75425;BME280;64007;50.632;13.700;2023-11-21T03:16:09;97324.44;;;6.06;100.00
75425;BME280;64007;50.632;13.700;2023-11-21T03:18:39;97332.13;;;6.09;100.00
75425;BME280;64007;50.632;13.700;2023-11-21T03:21:05;97331.16;;;6.10;100.00
75425;BME280;64007;50.632;13.700;2023-11-21T03:23:31;97340.03;;;6.09;100.00
75425;BME280;64007;50.632;13.700;2023-11-21T03:25:57;97331.16;;;6.10;100.00
75425;BME280;64007;50.632;13.700;2023-11-21T03:28:25;97337.63;;;6.06;100.00
75425;BME280;64007;50.632;13.700;2023-11-21T03:30:52;97326.09;;;6.07;100.00
75425;BME280;64007;50.632;13.700;2023-11-21T03:33:18;97331.63;;;6.04;100.00
75425;BME280;64007;50.632;13.700;2023-11-21T03:35:43;97334.25;;;6.04;100.00
75425;BME280;64007;50.632;13.700;2023-11-21T03:38:10;97341.94;;;6.07;100.00
75425;BME280;64007;50.632;13.700;2023-11-21T03:40:36;97352.00;;;6.02;100.00
75425;BME280;64007;50.632;13.700;2023-11-21T03:43:02;97354.63;;;6.02;100.00
75425;BME280;64007;50.632;13.700;2023-11-21T03:45:27;97344.09;;;6.02;100.00
75425;BME280;64007;50.632;13.700;2023-11-21T03:47:53;97350.19;;;6.03;100.00
75425;BME280;64007;50.632;13.700;2023-11-21T03:50:19;97347.44;;;6.04;100.00
75425;BME280;64007;50.632;13.700;2023-11-21T03:52:45;97354.63;;;6.02;100.00
75425;BME280;64007;50.632;13.700;2023-11-21T03:55:10;97355.03;;;6.09;100.00
75425;BME280;64007;50.632;13.700;2023-11-21T03:57:36;97348.28;;;6.05;100.00
75425;BME280;64007;50.632;13.700;2023-11-21T04:00:03;97355.38;;;6.04;100.00
75425;BME280;64007;50.632;13.700;2023-11-21T04:02:29;97356.31;;;6.03;100.00
75425;BME280;64007;50.632;13.700;2023-11-21T04:04:57;97344.81;;;6.04;100.00
75425;BME280;64007;50.632;13.700;2023-11-21T04:07:23;97349.75;;;6.09;100.00
75425;BME280;64007;50.632;13.700;2023-11-21T04:09:48;97340.03;;;6.09;100.00
75425;BME280;64007;50.632;13.700;2023-11-21T04:12:14;97350.75;;;6.19;100.00
75425;BME280;64007;50.632;13.700;2023-11-21T04:14:40;97350.88;;;6.17;100.00
75425;BME280;64007;50.632;13.700;2023-11-21T04:17:06;97349.00;;;6.31;100.00
75425;BME280;64007;50.632;13.700;2023-11-21T04:19:31;97345.84;;;6.25;100.00
75425;BME280;64007;50.632;13.700;2023-11-21T04:21:57;97352.09;;;6.24;100.00
75425;BME280;64007;50.632;13.700;2023-11-21T04:24:23;97351.41;;;6.34;100.00
75425;BME280;64007;50.632;13.700;2023-11-21T04:26:49;97348.75;;;6.34;100.00
75425;BME280;64007;50.632;13.700;2023-11-21T04:29:14;97354.28;;;6.31;100.00
75425;BME280;64007;50.632;13.700;2023-11-21T04:31:40;97353.19;;;6.33;100.00
75425;BME280;64007;50.632;13.700;2023-11-21T04:34:06;97355.06;;;6.44;100.00
75425;BME280;64007;50.632;13.700;2023-11-21T04:36:32;97359.63;;;6.42;100.00
75425;BME280;64007;50.632;13.700;2023-11-21T04:38:58;97367.63;;;6.40;100.00
75425;BME280;64007;50.632;13.700;2023-11-21T04:41:24;97367.75;;;6.39;100.00
75425;BME280;64007;50.632;13.700;2023-11-21T04:43:49;97360.78;;;6.38;100.00
75425;BME280;64007;50.632;13.700;2023-11-21T04:46:15;97360.78;;;6.38;100.00
75425;BME280;64007;50.632;13.700;2023-11-21T04:48:41;97370.13;;;6.31;100.00
75425;BME280;64007;50.632;13.700;2023-11-21T04:51:07;97373.81;;;6.28;100.00
75425;BME280;64007;50.632;13.700;2023-11-21T04:53:32;97378.41;;;6.37;100.00
75425;BME280;64007;50.632;13.700;2023-11-21T04:55:58;97370.13;;;6.31;100.00
75425;BME280;64007;50.632;13.700;2023-11-21T04:58:24;97372.03;;;6.28;100.00
75425;BME280;64007;50.632;13.700;2023-11-21T05:00:50;97371.41;;;6.25;100.00
75425;BME280;64007;50.632;13.700;2023-11-21T05:03:15;97373.25;;;6.36;100.00
75425;BME280;64007;50.632;13.700;2023-11-21T05:05:41;97367.91;;;6.48;100.00
75425;BME280;64007;50.632;13.700;2023-11-21T05:08:07;97372.91;;;6.40;100.00
75425;BME280;64007;50.632;13.700;2023-11-21T05:10:33;97375.16;;;6.34;100.00
75425;BME280;64007;50.632;13.700;2023-11-21T05:12:59;97376.00;;;6.34;100.00
75425;BME280;64007;50.632;13.700;2023-11-21T05:15:25;97376.56;;;6.26;100.00
75425;BME280;64007;50.632;13.700;2023-11-21T05:17:53;97388.94;;;6.26;100.00
75425;BME280;64007;50.632;13.700;2023-11-21T05:20:19;97383.03;;;6.22;100.00
75425;BME280;64007;50.632;13.700;2023-11-21T05:22:47;97390.22;;;6.20;100.00
75425;BME280;64007;50.632;13.700;2023-11-21T05:25:14;97381.34;;;6.21;100.00
75425;BME280;64007;50.632;13.700;2023-11-21T05:27:39;97391.69;;;6.24;100.00
75425;BME280;64007;50.632;13.700;2023-11-21T05:30:06;97384.72;;;6.23;100.00
75425;BME280;64007;50.632;13.700;2023-11-21T05:32:32;97383.88;;;6.23;100.00
75425;BME280;64007;50.632;13.700;2023-11-21T05:34:58;97396.84;;;6.26;100.00
75425;BME280;64007;50.632;13.700;2023-11-21T05:37:24;97393.25;;;6.27;100.00
75425;BME280;64007;50.632;13.700;2023-11-21T05:39:55;97393.16;;;6.28;100.00
75425;BME280;64007;50.632;13.700;2023-11-21T05:42:22;97401.78;;;6.31;100.00
75425;BME280;64007;50.632;13.700;2023-11-21T05:44:49;97400.84;;;6.32;100.00
75425;BME280;64007;50.632;13.700;2023-11-21T05:47:14;97396.50;;;6.31;100.00
75425;BME280;64007;50.632;13.700;2023-11-21T05:49:40;97395.78;;;6.28;100.00
75425;BME280;64007;50.632;13.700;2023-11-21T05:52:06;97402.03;;;6.27;100.00
75425;BME280;64007;50.632;13.700;2023-11-21T05:54:32;97411.63;;;6.28;100.00
75425;BME280;64007;50.632;13.700;2023-11-21T05:56:58;97403.94;;;6.25;100.00
75425;BME280;64007;50.632;13.700;2023-11-21T05:59:24;97405.63;;;6.26;100.00
75425;BME280;64007;50.632;13.700;2023-11-21T06:01:50;97398.41;;;6.28;100.00
75425;BME280;64007;50.632;13.700;2023-11-21T06:04:16;97400.09;;;6.29;100.00
75425;BME280;64007;50.632;13.700;2023-11-21T06:06:41;97398.41;;;6.28;100.00
75425;BME280;64007;50.632;13.700;2023-11-21T06:09:07;97411.41;;;6.32;100.00
75425;BME280;64007;50.632;13.700;2023-11-21T06:11:35;97404.31;;;6.32;100.00
75425;BME280;64007;50.632;13.700;2023-11-21T06:14:01;97403.97;;;6.37;100.00
75425;BME280;64007;50.632;13.700;2023-11-21T06:16:27;97402.22;;;6.72;100.00
75425;BME280;64007;50.632;13.700;2023-11-21T06:18:53;97406.50;;;6.62;100.00
75425;BME280;64007;50.632;13.700;2023-11-21T06:21:19;97406.69;;;6.48;100.00
75425;BME280;64007;50.632;13.700;2023-11-21T06:23:45;97404.41;;;6.43;100.00
75425;BME280;64007;50.632;13.700;2023-11-21T06:26:10;97406.31;;;6.41;100.00
75425;BME280;64007;50.632;13.700;2023-11-21T06:28:36;97409.03;;;6.40;100.00
75425;BME280;64007;50.632;13.700;2023-11-21T06:31:02;97416.44;;;6.35;100.00
75425;BME280;64007;50.632;13.700;2023-11-21T06:33:33;97431.56;;;6.33;100.00
75425;BME280;64007;50.632;13.700;2023-11-21T06:35:59;97429.44;;;6.38;100.00
75425;BME280;64007;50.632;13.700;2023-11-21T06:38:28;97428.09;;;6.32;100.00
75425;BME280;64007;50.632;13.700;2023-11-21T06:40:58;97423.94;;;6.41;100.00
75425;BME280;64007;50.632;13.700;2023-11-21T06:43:28;97420.91;;;6.58;100.00
75425;BME280;64007;50.632;13.700;2023-11-21T06:45:53;97422.22;;;6.40;100.00
75425;BME280;64007;50.632;13.700;2023-11-21T06:48:20;97428.94;;;6.33;100.00
75425;BME280;64007;50.632;13.700;2023-11-21T06:50:45;97437.06;;;6.29;100.00
75425;BME280;64007;50.632;13.700;2023-11-21T06:53:12;97437.91;;;6.30;100.00
75425;BME280;64007;50.632;13.700;2023-11-21T06:55:39;97442.13;;;6.33;100.00
75425;BME280;64007;50.632;13.700;2023-11-21T06:58:04;97448.44;;;6.43;100.00
75425;BME280;64007;50.632;13.700;2023-11-21T07:00:30;97452.31;;;6.50;100.00
75425;BME280;64007;50.632;13.700;2023-11-21T07:02:56;97450.53;;;6.50;100.00
75425;BME280;64007;50.632;13.700;2023-11-21T07:05:22;97452.38;;;6.61;100.00
75425;BME280;64007;50.632;13.700;2023-11-21T07:07:49;97446.75;;;6.42;100.00
75425;BME280;64007;50.632;13.700;2023-11-21T07:10:15;97457.00;;;6.34;100.00
75425;BME280;64007;50.632;13.700;2023-11-21T07:12:41;97465.16;;;6.31;100.00
75425;BME280;64007;50.632;13.700;2023-11-21T07:15:07;97461.78;;;6.28;100.00
75425;BME280;64007;50.632;13.700;2023-11-21T07:17:35;97452.66;;;6.45;100.00
75425;BME280;64007;50.632;13.700;2023-11-21T07:20:01;97466.63;;;6.35;100.00
75425;BME280;64007;50.632;13.700;2023-11-21T07:22:27;97468.53;;;6.33;100.00
75425;BME280;64007;50.632;13.700;2023-11-21T07:24:53;97476.56;;;6.31;100.00
75425;BME280;64007;50.632;13.700;2023-11-21T07:27:19;97477.19;;;6.35;100.00
75425;BME280;64007;50.632;13.700;2023-11-21T07:29:45;97485.06;;;6.47;100.00
75425;BME280;64007;50.632;13.700;2023-11-21T07:32:11;97481.47;;;6.72;100.00
75425;BME280;64007;50.632;13.700;2023-11-21T07:34:38;97488.06;;;7.02;100.00
75425;BME280;64007;50.632;13.700;2023-11-21T07:37:04;97489.53;;;7.06;100.00
75425;BME280;64007;50.632;13.700;2023-11-21T07:39:29;97490.22;;;6.97;100.00
75425;BME280;64007;50.632;13.700;2023-11-21T07:41:56;97495.00;;;6.91;100.00
75425;BME280;64007;50.632;13.700;2023-11-21T07:44:23;97497.44;;;6.95;100.00
75425;BME280;64007;50.632;13.700;2023-11-21T07:46:49;97490.59;;;7.03;100.00
75425;BME280;64007;50.632;13.700;2023-11-21T07:49:15;97484.56;;;7.25;100.00
75425;BME280;64007;50.632;13.700;2023-11-21T07:51:43;97483.59;;;7.26;100.00
75425;BME280;64007;50.632;13.700;2023-11-21T07:54:09;97480.72;;;7.29;100.00
75425;BME280;64007;50.632;13.700;2023-11-21T07:56:35;97476.88;;;7.33;100.00
75425;BME280;64007;50.632;13.700;2023-11-21T07:59:01;97483.50;;;7.39;100.00
75425;BME280;64007;50.632;13.700;2023-11-21T08:01:27;97484.22;;;7.41;100.00
75425;BME280;64007;50.632;13.700;2023-11-21T08:03:54;97470.66;;;7.57;100.00
75425;BME280;64007;50.632;13.700;2023-11-21T08:06:23;97482.91;;;7.46;100.00
75425;BME280;64007;50.632;13.700;2023-11-21T08:08:49;97475.31;;;7.42;100.00
75425;BME280;64007;50.632;13.700;2023-11-21T08:11:15;97474.00;;;7.47;100.00
75425;BME280;64007;50.632;13.700;2023-11-21T08:13:41;97473.81;;;7.62;100.00
75425;BME280;64007;50.632;13.700;2023-11-21T08:16:07;97476.22;;;7.87;100.00
75425;BME280;64007;50.632;13.700;2023-11-21T08:18:33;97472.84;;;8.07;100.00
75425;BME280;64007;50.632;13.700;2023-11-21T08:21:00;97471.38;;;8.26;100.00
75425;BME280;64007;50.632;13.700;2023-11-21T08:23:26;97481.47;;;8.54;100.00
75425;BME280;64007;50.632;13.700;2023-11-21T08:25:53;97489.81;;;8.82;100.00
75425;BME280;64007;50.632;13.700;2023-11-21T08:28:18;97488.47;;;8.87;100.00
75425;BME280;64007;50.632;13.700;2023-11-21T08:30:44;97490.75;;;8.92;100.00
75425;BME280;64007;50.632;13.700;2023-11-21T08:33:10;97489.06;;;8.91;100.00
75425;BME280;64007;50.632;13.700;2023-11-21T08:35:37;97489.69;;;8.83;100.00
75425;BME280;64007;50.632;13.700;2023-11-21T08:38:04;97496.97;;;9.02;100.00
75425;BME280;64007;50.632;13.700;2023-11-21T08:40:30;97504.38;;;8.87;100.00
75425;BME280;64007;50.632;13.700;2023-11-21T08:42:56;97505.72;;;8.82;100.00
75425;BME280;64007;50.632;13.700;2023-11-21T08:45:24;97491.97;;;8.76;100.00
75425;BME280;64007;50.632;13.700;2023-11-21T08:47:51;97490.03;;;8.78;100.00
75425;BME280;64007;50.632;13.700;2023-11-21T08:50:17;97498.19;;;8.98;100.00
75425;BME280;64007;50.632;13.700;2023-11-21T08:52:45;97494.03;;;8.73;100.00
75425;BME280;64007;50.632;13.700;2023-11-21T08:55:11;97491.66;;;8.70;100.00
75425;BME280;64007;50.632;13.700;2023-11-21T08:57:41;97495.59;;;8.75;100.00
75425;BME280;64007;50.632;13.700;2023-11-21T09:00:09;97496.81;;;8.71;100.00
75425;BME280;64007;50.632;13.700;2023-11-21T09:02:38;97493.22;;;8.72;100.00
75425;BME280;64007;50.632;13.700;2023-11-21T09:05:05;97503.09;;;8.82;100.00
75425;BME280;64007;50.632;13.700;2023-11-21T09:07:31;97499.47;;;8.83;100.00
75425;BME280;64007;50.632;13.700;2023-11-21T09:09:57;97505.88;;;9.01;100.00
75425;BME280;64007;50.632;13.700;2023-11-21T09:12:22;97511.25;;;9.10;100.00
75425;BME280;64007;50.632;13.700;2023-11-21T09:14:50;97510.44;;;9.10;100.00
75425;BME280;64007;50.632;13.700;2023-11-21T09:17:16;97513.38;;;8.96;100.00
75425;BME280;64007;50.632;13.700;2023-11-21T09:19:42;97513.31;;;8.86;100.00
75425;BME280;64007;50.632;13.700;2023-11-21T09:22:16;97518.03;;;8.83;100.00
75425;BME280;64007;50.632;13.700;2023-11-21T09:24:42;97529.47;;;8.83;100.00
75425;BME280;64007;50.632;13.700;2023-11-21T09:27:08;97519.09;;;8.80;100.00
75425;BME280;64007;50.632;13.700;2023-11-21T09:29:35;97520.66;;;8.83;100.00
75425;BME280;64007;50.632;13.700;2023-11-21T09:32:05;97519.69;;;8.84;100.00
75425;BME280;64007;50.632;13.700;2023-11-21T09:34:37;97517.06;;;8.84;100.00
75425;BME280;64007;50.632;13.700;2023-11-21T09:37:07;97525.94;;;8.94;100.00
75425;BME280;64007;50.632;13.700;2023-11-21T09:39:34;97522.81;;;8.89;100.00
75425;BME280;64007;50.632;13.700;2023-11-21T09:42:10;97537.78;;;9.10;100.00
75425;BME280;64007;50.632;13.700;2023-11-21T09:44:45;97533.84;;;9.05;100.00
75425;BME280;64007;50.632;13.700;2023-11-21T09:47:14;97538.03;;;9.07;100.00
75425;BME280;64007;50.632;13.700;2023-11-21T09:49:47;97536.56;;;9.15;100.00
75425;BME280;64007;50.632;13.700;2023-11-21T09:52:38;97536.09;;;9.09;100.00
75425;BME280;64007;50.632;13.700;2023-11-21T09:55:08;97541.75;;;9.16;100.00
75425;BME280;64007;50.632;13.700;2023-11-21T09:57:38;97535.94;;;9.22;100.00
75425;BME280;64007;50.632;13.700;2023-11-21T10:00:05;97541.75;;;9.16;100.00
75425;BME280;64007;50.632;13.700;2023-11-21T10:02:38;97542.03;;;9.02;100.00
75425;BME280;64007;50.632;13.700;2023-11-21T10:05:06;97541.59;;;8.97;100.00
75425;BME280;64007;50.632;13.700;2023-11-21T10:07:35;97537.00;;;8.99;100.00
75425;BME280;64007;50.632;13.700;2023-11-21T10:10:01;97540.16;;;8.93;100.00
75425;BME280;64007;50.632;13.700;2023-11-21T10:12:28;97539.56;;;8.89;100.00
75425;BME280;64007;50.632;13.700;2023-11-21T10:14:54;97532.25;;;8.82;100.00
75425;BME280;64007;50.632;13.700;2023-11-21T10:17:23;97533.63;;;8.97;100.00
75425;BME280;64007;50.632;13.700;2023-11-21T10:19:53;97530.38;;;8.93;100.00
75425;BME280;64007;50.632;13.700;2023-11-21T10:22:20;97527.03;;;8.91;100.00
75425;BME280;64007;50.632;13.700;2023-11-21T10:24:46;97531.63;;;8.78;100.00
75425;BME280;64007;50.632;13.700;2023-11-21T10:27:11;97527.91;;;8.69;100.00
75425;BME280;64007;50.632;13.700;2023-11-21T10:29:41;97538.16;;;8.63;100.00
75425;BME280;64007;50.632;13.700;2023-11-21T10:32:07;97532.50;;;8.67;100.00
75425;BME280;64007;50.632;13.700;2023-11-21T10:34:33;97537.31;;;8.62;100.00
75425;BME280;64007;50.632;13.700;2023-11-21T10:37:02;97540.94;;;8.61;100.00
75425;BME280;64007;50.632;13.700;2023-11-21T10:39:36;97532.72;;;8.75;100.00
75425;BME280;64007;50.632;13.700;2023-11-21T10:42:02;97537.16;;;8.86;100.00
75425;BME280;64007;50.632;13.700;2023-11-21T10:44:27;97541.50;;;8.87;100.00
75425;BME280;64007;50.632;13.700;2023-11-21T10:46:54;97540.88;;;8.95;100.00
75425;BME280;64007;50.632;13.700;2023-11-21T10:49:26;97537.72;;;9.01;100.00
75425;BME280;64007;50.632;13.700;2023-11-21T10:51:53;97546.50;;;9.01;100.00
75425;BME280;64007;50.632;13.700;2023-11-21T10:54:21;97535.53;;;9.06;100.00
75425;BME280;64007;50.632;13.700;2023-11-21T10:57:00;97532.81;;;9.17;100.00
75425;BME280;64007;50.632;13.700;2023-11-21T10:59:30;97539.56;;;9.21;100.00
75425;BME280;64007;50.632;13.700;2023-11-21T11:01:57;97539.09;;;9.16;100.00
75425;BME280;64007;50.632;13.700;2023-11-21T11:04:27;97539.94;;;9.17;100.00
75425;BME280;64007;50.632;13.700;2023-11-21T11:07:02;97537.16;;;9.18;100.00
75425;BME280;64007;50.632;13.700;2023-11-21T11:09:30;97536.44;;;9.16;100.00
75425;BME280;64007;50.632;13.700;2023-11-21T11:11:57;97541.25;;;9.22;100.00
75425;BME280;64007;50.632;13.700;2023-11-21T11:14:25;97547.88;;;9.28;100.00
75425;BME280;64007;50.632;13.700;2023-11-21T11:16:53;97547.94;;;9.37;100.00
75425;BME280;64007;50.632;13.700;2023-11-21T11:19:20;97553.56;;;9.23;100.00
75425;BME280;64007;50.632;13.700;2023-11-21T11:22:19;97552.59;;;9.13;100.00
75425;BME280;64007;50.632;13.700;2023-11-21T11:27:37;97554.53;;;9.22;100.00
75425;BME280;64007;50.632;13.700;2023-11-21T11:33:11;97553.88;;;9.30;100.00
75425;BME280;64007;50.632;13.700;2023-11-21T11:35:55;97559.84;;;9.22;100.00
75425;BME280;64007;50.632;13.700;2023-11-21T11:38:22;97546.06;;;9.28;100.00
75425;BME280;64007;50.632;13.700;2023-11-21T11:40:54;97551.44;;;9.38;100.00
75425;BME280;64007;50.632;13.700;2023-11-21T11:43:26;97550.31;;;9.40;100.00
75425;BME280;64007;50.632;13.700;2023-11-21T11:45:55;97556.66;;;9.49;100.00
75425;BME280;64007;50.632;13.700;2023-11-21T11:48:21;97549.28;;;9.53;100.00
75425;BME280;64007;50.632;13.700;2023-11-21T11:51:04;97556.03;;;9.57;100.00
75425;BME280;64007;50.632;13.700;2023-11-21T11:53:35;97559.16;;;9.62;100.00
75425;BME280;64007;50.632;13.700;2023-11-21T11:56:25;97563.09;;;9.67;100.00
75425;BME280;64007;50.632;13.700;2023-11-21T11:58:55;97560.31;;;9.69;100.00
75425;BME280;64007;50.632;13.700;2023-11-21T12:01:22;97561.75;;;9.73;100.00
75425;BME280;64007;50.632;13.700;2023-11-21T12:07:01;97564.59;;;9.81;100.00
75425;BME280;64007;50.632;13.700;2023-11-21T12:09:29;97563.78;;;9.90;100.00
75425;BME280;64007;50.632;13.700;2023-11-21T12:11:57;97563.63;;;10.03;100.00
75425;BME280;64007;50.632;13.700;2023-11-21T12:14:22;97568.56;;;9.96;100.00
75425;BME280;64007;50.632;13.700;2023-11-21T12:16:49;97569.75;;;10.03;100.00
75425;BME280;64007;50.632;13.700;2023-11-21T12:19:14;97563.34;;;9.85;100.00
75425;BME280;64007;50.632;13.700;2023-11-21T12:21:41;97573.53;;;9.80;100.00
75425;BME280;64007;50.632;13.700;2023-11-21T12:24:07;97578.56;;;9.83;100.00
75425;BME280;64007;50.632;13.700;2023-11-21T12:26:35;97578.03;;;9.89;100.00
75425;BME280;64007;50.632;13.700;2023-11-21T12:29:02;97582.91;;;9.84;100.00
75425;BME280;64007;50.632;13.700;2023-11-21T12:31:30;97578.25;;;9.77;100.00
75425;BME280;64007;50.632;13.700;2023-11-21T12:33:56;97586.34;;;9.75;100.00
75425;BME280;64007;50.632;13.700;2023-11-21T12:36:23;97586.78;;;9.80;100.00
75425;BME280;64007;50.632;13.700;2023-11-21T12:38:50;97584.88;;;9.61;100.00
75425;BME280;64007;50.632;13.700;2023-11-21T12:41:16;97595.38;;;9.52;100.00
75425;BME280;64007;50.632;13.700;2023-11-21T12:43:43;97595.63;;;9.28;100.00
75425;BME280;64007;50.632;13.700;2023-11-21T12:46:10;97602.03;;;9.14;100.00
75425;BME280;64007;50.632;13.700;2023-11-21T12:48:41;97601.31;;;9.12;100.00
75425;BME280;64007;50.632;13.700;2023-11-21T12:51:10;97600.00;;;9.06;100.00
75425;BME280;64007;50.632;13.700;2023-11-21T12:53:38;97603.63;;;9.05;100.00
75425;BME280;64007;50.632;13.700;2023-11-21T12:56:10;97607.13;;;9.06;100.00
75425;BME280;64007;50.632;13.700;2023-11-21T12:58:40;97608.50;;;8.89;100.00